Time;durP1;ratioP1;P1;durP2;ratioP2;P2;SDS_P1;SDS_P2;PMS_P1;PMS_P2;Temp;Humidity;BMP_temperature;BMP_pressure;BME280_temperature;BME280_humidity;BME280_pressure;Samples;Min_cycle;Max_cycle;Signal;HPM_P1;HPM_P2
2023/07/09 00:02:52;;;;;;;7.90;7.20;;;22.00;99.40;;;;;;6225524;28;20307;-61
2023/07/09 00:05:56;;;;;;;8.60;7.73;;;22.00;99.00;;;;;;6225856;28;20689;-61
2023/07/09 00:09:00;;;;;;;8.43;7.63;;;21.90;98.90;;;;;;6225997;28;20236;-61
2023/07/09 00:12:03;;;;;;;8.60;7.80;;;21.90;99.10;;;;;;6225798;28;20253;-61
2023/07/09 00:15:09;;;;;;;8.03;7.10;;;21.90;99.20;;;;;;6226303;28;20229;-61
2023/07/09 00:18:12;;;;;;;8.37;7.00;;;21.90;99.30;;;;;;6225260;28;20563;-61
2023/07/09 00:21:18;;;;;;;7.90;7.20;;;21.90;99.30;;;;;;6225732;28;20252;-61
2023/07/09 00:24:21;;;;;;;8.47;7.73;;;21.90;99.40;;;;;;6225508;28;20228;-61
2023/07/09 00:27:28;;;;;;;7.60;6.80;;;21.90;99.50;;;;;;6225301;28;20224;-61
2023/07/09 00:30:31;;;;;;;9.00;8.17;;;21.80;99.50;;;;;;6225000;28;20654;-61
2023/07/09 00:33:34;;;;;;;9.77;7.60;;;21.80;99.80;;;;;;6224513;28;20674;-61
2023/07/09 00:36:40;;;;;;;7.70;7.00;;;21.70;99.90;;;;;;6224108;28;20232;-61
2023/07/09 00:39:44;;;;;;;7.70;7.00;;;21.70;99.90;;;;;;6225228;28;20229;-61
2023/07/09 00:42:48;;;;;;;7.87;7.17;;;21.70;99.90;;;;;;6224621;28;20239;-61
2023/07/09 00:46:12;;;;;;;7.70;7.00;;;21.70;99.90;;;;;;6227195;28;20229;-61
2023/07/09 00:49:29;;;;;;;7.47;6.80;;;21.70;99.90;;;;;;6230016;28;20243;-61
2023/07/09 00:52:38;;;;;;;9.13;7.10;;;21.70;99.90;;;;;;6229850;28;20612;-62
2023/07/09 00:55:45;;;;;;;7.60;6.80;;;21.60;99.90;;;;;;6229629;28;20228;-61
2023/07/09 00:58:49;;;;;;;8.17;7.37;;;21.60;99.90;;;;;;6229882;28;20317;-61
2023/07/09 01:01:55;;;;;;;7.57;6.90;;;21.60;99.90;;;;;;6229297;28;20636;-61
2023/07/09 01:05:02;;;;;;;7.93;7.17;;;21.50;99.90;;;;;;6229303;28;20283;-61
2023/07/09 01:08:08;;;;;;;8.27;6.73;;;21.50;99.90;;;;;;6229881;28;20237;-61
2023/07/09 01:11:20;;;;;;;7.67;6.97;;;21.50;99.90;;;;;;6230156;28;20237;-61
2023/07/09 01:14:25;;;;;;;7.83;7.20;;;21.40;99.90;;;;;;6229636;28;20237;-61
2023/07/09 01:17:30;;;;;;;8.03;7.23;;;21.40;99.90;;;;;;6229537;28;20312;-61
2023/07/09 01:20:33;;;;;;;7.57;6.90;;;21.40;99.90;;;;;;6229772;28;20205;-61
2023/07/09 01:23:38;;;;;;;8.23;7.33;;;21.40;99.90;;;;;;6228615;28;20326;-61
2023/07/09 01:26:43;;;;;;;8.10;7.30;;;21.40;99.90;;;;;;6228711;28;20662;-61
2023/07/09 01:29:48;;;;;;;8.33;7.30;;;21.30;99.90;;;;;;6228502;28;20190;-61
2023/07/09 01:32:56;;;;;;;8.70;7.50;;;21.20;99.90;;;;;;6228900;28;20228;-61
2023/07/09 01:36:00;;;;;;;8.43;7.60;;;21.30;99.90;;;;;;6228924;28;20233;-61
2023/07/09 01:39:05;;;;;;;8.43;7.63;;;21.20;99.90;;;;;;6228932;28;20547;-61
2023/07/09 01:42:09;;;;;;;8.93;7.80;;;21.20;99.90;;;;;;6229150;28;20228;-61
2023/07/09 01:45:13;;;;;;;7.73;6.93;;;21.20;99.90;;;;;;6229455;28;20224;-61
2023/07/09 01:48:17;;;;;;;8.30;7.60;;;21.20;99.90;;;;;;6229232;28;20291;-61
2023/07/09 01:51:20;;;;;;;7.67;6.97;;;21.10;99.90;;;;;;6228730;28;20237;-61
2023/07/09 01:54:24;;;;;;;8.10;7.40;;;21.10;99.90;;;;;;6228610;28;20232;-61
2023/07/09 01:57:33;;;;;;;8.53;7.73;;;21.10;99.90;;;;;;6227595;28;20255;-61
2023/07/09 02:00:36;;;;;;;9.10;7.50;;;21.10;99.90;;;;;;6228897;28;20225;-61
2023/07/09 02:03:39;;;;;;;8.20;7.30;;;21.00;99.90;;;;;;6235148;28;20240;-61
2023/07/09 02:06:42;;;;;;;8.13;7.33;;;21.00;99.90;;;;;;6233578;28;20238;-61
2023/07/09 02:09:47;;;;;;;8.27;7.57;;;20.90;99.90;;;;;;6232103;28;20239;-61
2023/07/09 02:12:50;;;;;;;7.90;7.10;;;20.90;99.90;;;;;;6232233;28;20674;-61
2023/07/09 02:15:54;;;;;;;7.90;7.10;;;20.90;99.90;;;;;;6228509;28;20766;-61
2023/07/09 02:18:57;;;;;;;8.33;7.33;;;20.80;99.90;;;;;;6227837;28;20228;-61
2023/07/09 02:22:00;;;;;;;8.70;7.93;;;20.80;99.90;;;;;;6227741;28;20233;-61
2023/07/09 02:25:06;;;;;;;8.93;8.03;;;20.70;99.90;;;;;;6210283;23;20245;-61
2023/07/09 02:28:09;;;;;;;7.70;7.00;;;20.70;99.90;;;;;;6203617;28;20253;-61
2023/07/09 02:31:15;;;;;;;8.43;7.73;;;20.60;99.90;;;;;;6202873;28;20674;-61
2023/07/09 02:34:19;;;;;;;10.90;7.73;;;20.60;99.90;;;;;;6203070;28;20248;-61
2023/07/09 02:37:24;;;;;;;8.97;8.07;;;20.70;99.90;;;;;;6202835;28;20705;-61
2023/07/09 02:40:29;;;;;;;9.93;7.80;;;20.60;99.90;;;;;;6203260;28;20241;-61
2023/07/09 02:43:32;;;;;;;8.20;7.40;;;20.60;99.90;;;;;;6186363;28;20685;-61
2023/07/09 02:46:36;;;;;;;8.53;7.73;;;20.50;99.90;;;;;;6179351;28;20233;-61
2023/07/09 02:49:40;;;;;;;9.30;7.33;;;20.50;99.90;;;;;;6179032;28;20230;-61
2023/07/09 02:52:44;;;;;;;9.20;8.40;;;20.50;99.90;;;;;;6178359;28;20301;-61
2023/07/09 02:55:49;;;;;;;8.87;8.10;;;20.60;99.90;;;;;;6177481;28;20365;-62
2023/07/09 02:58:52;;;;;;;7.77;7.03;;;20.60;99.90;;;;;;6174404;28;20241;-61
2023/07/09 03:01:55;;;;;;;9.13;8.27;;;20.50;99.90;;;;;;6178583;28;20230;-61
2023/07/09 03:04:58;;;;;;;8.27;7.43;;;20.60;99.90;;;;;;6177708;28;20249;-61
2023/07/09 03:08:02;;;;;;;13.00;8.43;;;20.50;99.90;;;;;;6177992;28;20297;-61
2023/07/09 03:11:12;;;;;;;9.63;8.20;;;20.60;99.90;;;;;;6177558;28;20321;-61
2023/07/09 03:14:16;;;;;;;7.70;7.00;;;20.50;99.90;;;;;;6177724;28;20244;-61
2023/07/09 03:17:19;;;;;;;8.27;7.40;;;20.50;99.90;;;;;;6176967;28;20222;-61
2023/07/09 03:20:23;;;;;;;8.00;7.30;;;20.40;99.90;;;;;;6177468;28;20226;-61
2023/07/09 03:23:26;;;;;;;8.63;7.83;;;20.50;99.90;;;;;;6177974;28;20249;-61
2023/07/09 03:26:31;;;;;;;9.50;8.53;;;20.40;99.90;;;;;;6201773;28;20610;-61
2023/07/09 03:29:34;;;;;;;9.40;8.50;;;20.40;99.90;;;;;;6202077;28;20219;-61
2023/07/09 03:32:38;;;;;;;8.10;7.40;;;20.40;99.90;;;;;;6202194;28;20237;-61
2023/07/09 03:35:41;;;;;;;8.00;7.27;;;20.40;99.90;;;;;;6201832;28;20577;-61
2023/07/09 03:38:44;;;;;;;10.03;7.80;;;20.40;99.90;;;;;;6214167;28;20643;-61
2023/07/09 03:41:49;;;;;;;9.30;8.40;;;20.40;99.90;;;;;;6226389;28;20233;-61
2023/07/09 03:44:52;;;;;;;8.37;7.57;;;20.40;99.90;;;;;;6225528;28;20589;-61
2023/07/09 03:47:56;;;;;;;8.50;7.80;;;20.40;99.90;;;;;;6225752;28;20228;-61
2023/07/09 03:50:59;;;;;;;9.73;8.13;;;20.40;99.90;;;;;;6226209;28;20275;-61
2023/07/09 03:54:02;;;;;;;9.23;7.63;;;20.50;99.90;;;;;;6225896;28;20237;-61
2023/07/09 03:57:07;;;;;;;9.43;8.50;;;20.50;99.90;;;;;;6226222;28;20239;-61
2023/07/09 04:00:12;;;;;;;8.97;7.73;;;20.50;99.90;;;;;;6226059;28;20283;-61
2023/07/09 04:03:15;;;;;;;8.03;7.23;;;20.60;99.90;;;;;;6225722;28;20228;-61
2023/07/09 04:06:18;;;;;;;8.77;8.00;;;20.60;99.90;;;;;;6225386;28;20682;-61
2023/07/09 04:09:21;;;;;;;8.37;7.57;;;20.60;99.90;;;;;;6225586;28;20244;-61
2023/07/09 04:12:26;;;;;;;9.70;8.70;;;20.70;99.90;;;;;;6225866;28;20237;-62
2023/07/09 04:15:30;;;;;;;7.57;6.87;;;20.80;99.90;;;;;;6225126;28;20710;-61
2023/07/09 04:18:33;;;;;;;10.10;9.10;;;20.90;99.90;;;;;;6225623;28;20229;-61
2023/07/09 04:21:36;;;;;;;9.50;8.60;;;21.00;99.90;;;;;;6225201;28;20217;-61
2023/07/09 04:24:39;;;;;;;9.17;8.27;;;21.10;99.90;;;;;;6225203;28;20247;-61
2023/07/09 04:27:44;;;;;;;8.90;8.00;;;21.20;99.90;;;;;;6225007;28;20228;-61
2023/07/09 04:30:48;;;;;;;9.80;8.93;;;21.40;99.90;;;;;;6225261;28;20224;-61
2023/07/09 04:33:53;;;;;;;10.03;8.93;;;21.50;99.90;;;;;;6224604;28;20306;-61
2023/07/09 04:36:56;;;;;;;8.10;7.40;;;21.70;99.90;;;;;;6225281;28;20662;-61
2023/07/09 04:39:59;;;;;;;9.20;8.37;;;21.80;99.90;;;;;;6225097;28;20259;-61
2023/07/09 04:43:04;;;;;;;8.70;7.90;;;21.90;99.90;;;;;;6224619;28;20229;-61
2023/07/09 04:46:08;;;;;;;9.97;9.07;;;22.10;99.90;;;;;;6225106;28;20570;-61
2023/07/09 04:49:12;;;;;;;9.13;8.27;;;22.20;99.90;;;;;;6225104;28;20244;-61
2023/07/09 04:52:15;;;;;;;9.27;8.47;;;22.40;99.90;;;;;;6224794;28;20287;-61
2023/07/09 04:55:18;;;;;;;10.77;8.60;;;22.60;99.90;;;;;;6224924;28;20233;-61
2023/07/09 04:58:24;;;;;;;9.63;8.13;;;22.80;99.90;;;;;;6225137;28;20307;-61
2023/07/09 05:01:27;;;;;;;9.03;8.17;;;22.90;99.90;;;;;;6224929;28;20229;-61
2023/07/09 05:04:30;;;;;;;9.57;8.67;;;23.10;99.90;;;;;;6224781;28;20236;-61
2023/07/09 05:07:33;;;;;;;10.03;9.13;;;23.30;99.90;;;;;;6225187;28;20371;-61
2023/07/09 05:10:42;;;;;;;10.80;9.77;;;23.20;99.90;;;;;;6224505;28;20229;-61
2023/07/09 05:13:46;;;;;;;10.63;9.20;;;23.10;99.90;;;;;;6225007;28;20251;-61
2023/07/09 05:16:49;;;;;;;9.80;9.00;;;23.00;99.90;;;;;;6224826;28;20690;-62
2023/07/09 05:19:53;;;;;;;9.53;8.70;;;22.90;99.90;;;;;;6225247;28;20225;-61
2023/07/09 05:22:56;;;;;;;10.10;9.10;;;22.90;99.90;;;;;;6225072;28;20370;-61
2023/07/09 05:26:00;;;;;;;10.80;9.73;;;22.90;99.90;;;;;;6224664;28;20691;-61
2023/07/09 05:29:05;;;;;;;12.80;9.83;;;22.80;99.90;;;;;;6224572;28;20229;-61
2023/07/09 05:32:09;;;;;;;9.33;8.53;;;22.90;99.90;;;;;;6226176;28;20229;-61
2023/07/09 05:35:12;;;;;;;9.40;8.47;;;22.90;99.90;;;;;;6228969;28;20586;-61
2023/07/09 05:38:16;;;;;;;9.40;8.57;;;23.00;99.90;;;;;;6229465;28;20224;-61
2023/07/09 05:41:19;;;;;;;9.90;9.00;;;23.20;99.90;;;;;;6228875;28;20229;-61
2023/07/09 05:44:23;;;;;;;10.30;8.33;;;23.40;99.90;;;;;;6228857;28;20378;-61
2023/07/09 05:47:27;;;;;;;11.10;10.00;;;23.50;99.90;;;;;;6228501;28;20292;-61
2023/07/09 05:50:30;;;;;;;11.17;10.27;;;23.70;99.80;;;;;;6204929;28;20292;-61
2023/07/09 05:53:33;;;;;;;10.57;9.57;;;23.80;99.40;;;;;;6228981;28;20233;-61
2023/07/09 05:56:37;;;;;;;10.30;9.40;;;23.80;99.90;;;;;;6228798;28;20647;-60
2023/07/09 05:59:41;;;;;;;11.23;10.17;;;24.00;99.90;;;;;;6228928;28;20209;-61
2023/07/09 06:02:44;;;;;;;11.23;10.17;;;24.20;99.90;;;;;;6228326;28;20556;-61
2023/07/09 06:05:49;;;;;;;10.57;9.60;;;24.40;99.80;;;;;;6227913;28;20256;-61
2023/07/09 06:08:53;;;;;;;10.13;9.23;;;24.60;99.50;;;;;;6227901;28;20639;-61
2023/07/09 06:11:57;;;;;;;12.00;9.20;;;24.80;99.40;;;;;;6228469;28;20221;-61
2023/07/09 06:15:02;;;;;;;10.67;9.67;;;25.10;99.10;;;;;;6227718;28;20246;-61
2023/07/09 06:18:06;;;;;;;11.53;10.33;;;25.50;98.40;;;;;;6228071;28;20232;-61
2023/07/09 06:21:11;;;;;;;10.67;9.70;;;26.00;97.60;;;;;;6228404;28;20314;-61
2023/07/09 06:24:14;;;;;;;10.50;9.23;;;26.60;96.70;;;;;;6227702;28;20670;-61
2023/07/09 06:27:17;;;;;;;11.00;10.00;;;27.10;95.40;;;;;;6227883;28;20224;-61
2023/07/09 06:30:22;;;;;;;9.60;8.70;;;27.40;94.10;;;;;;6227711;28;20278;-64
2023/07/09 06:33:28;;;;;;;8.77;8.07;;;27.80;92.60;;;;;;6227505;28;20315;-63
2023/07/09 06:36:31;;;;;;;9.80;8.90;;;28.30;91.70;;;;;;6227817;28;20236;-62
2023/07/09 06:39:34;;;;;;;9.53;8.67;;;28.60;90.80;;;;;;6227350;28;20311;-62
2023/07/09 06:42:38;;;;;;;9.17;8.30;;;29.10;90.30;;;;;;6227128;28;20252;-62
2023/07/09 06:45:51;;;;;;;9.13;8.33;;;29.80;86.40;;;;;;6227597;28;20314;-62
2023/07/09 06:48:54;;;;;;;9.27;8.38;;;30.20;82.50;;;;;;6227404;28;20246;-62
2023/07/09 06:51:57;;;;;;;11.90;9.13;;;30.70;80.70;;;;;;6227477;28;20239;-62
2023/07/09 06:55:01;;;;;;;9.32;8.45;;;31.20;78.90;;;;;;6227064;28;20725;-62
2023/07/09 06:58:04;;;;;;;8.73;7.82;;;31.50;74.70;;;;;;6227258;28;20242;-62
2023/07/09 07:01:10;;;;;;;9.55;8.65;;;31.80;74.80;;;;;;6227110;28;20224;-62
2023/07/09 07:04:15;;;;;;;9.88;8.98;;;32.40;72.10;;;;;;6226861;28;20300;-63
2023/07/09 07:07:18;;;;;;;9.65;8.85;;;33.20;68.70;;;;;;6227241;28;20236;-61
2023/07/09 07:10:21;;;;;;;10.45;9.45;;;33.60;65.60;;;;;;6221168;28;20232;-61
2023/07/09 07:13:24;;;;;;;9.27;8.32;;;34.30;62.90;;;;;;6191775;28;20700;-62
2023/07/09 07:16:32;;;;;;;9.13;8.30;;;34.80;60.90;;;;;;6188187;28;20229;-62
2023/07/09 07:19:36;;;;;;;9.73;8.88;;;35.30;59.40;;;;;;6181012;28;20236;-62
2023/07/09 07:22:39;;;;;;;9.30;8.50;;;35.90;57.10;;;;;;6193412;28;20248;-62
2023/07/09 07:25:43;;;;;;;9.20;8.45;;;36.50;54.70;;;;;;6182980;28;20232;-62
2023/07/09 07:28:47;;;;;;;10.35;9.45;;;37.00;53.40;;;;;;6176456;28;20239;-62
2023/07/09 07:31:51;;;;;;;9.52;8.65;;;37.70;51.40;;;;;;6176919;28;20663;-61
2023/07/09 07:34:55;;;;;;;8.68;7.97;;;38.30;49.80;;;;;;6176687;28;20245;-61
2023/07/09 07:37:58;;;;;;;8.82;8.15;;;38.90;47.50;;;;;;6176872;28;20280;-61
2023/07/09 07:41:01;;;;;;;9.38;8.60;;;39.50;47.10;;;;;;6176768;28;20618;-61
2023/07/09 07:44:06;;;;;;;8.60;7.93;;;40.20;45.30;;;;;;6177325;28;20308;-61
2023/07/09 07:47:11;;;;;;;8.88;8.23;;;40.90;43.40;;;;;;6172843;28;20233;-61
2023/07/09 07:50:19;;;;;;;8.73;8.10;;;41.10;41.50;;;;;;6200145;28;20675;-61
2023/07/09 07:53:22;;;;;;;9.48;8.68;;;41.10;40.80;;;;;;6177550;28;20257;-61
2023/07/09 07:56:26;;;;;;;9.57;8.77;;;40.90;40.40;;;;;;6176072;28;20706;-61
2023/07/09 07:59:32;;;;;;;9.68;8.82;;;40.50;40.10;;;;;;6177661;28;20237;-61
2023/07/09 08:02:37;;;;;;;10.18;9.40;;;39.70;41.60;;;;;;6201297;28;20613;-62
2023/07/09 08:05:40;;;;;;;9.10;8.48;;;38.90;42.80;;;;;;6201202;28;20205;-62
2023/07/09 08:08:43;;;;;;;10.20;9.30;;;38.20;43.40;;;;;;6201484;28;20209;-62
2023/07/09 08:11:46;;;;;;;10.20;9.20;;;37.40;44.80;;;;;;6201986;28;20224;-61
2023/07/09 08:14:49;;;;;;;10.80;9.90;;;37.00;46.00;;;;;;6201603;28;20366;-62
2023/07/09 08:17:54;;;;;;;9.77;8.98;;;36.50;46.80;;;;;;6201555;28;20236;-61
2023/07/09 08:21:00;;;;;;;11.68;10.45;;;36.10;47.70;;;;;;6201242;28;20234;-62
2023/07/09 08:24:04;;;;;;;10.07;9.38;;;35.70;48.20;;;;;;6200909;28;20239;-62
2023/07/09 08:27:09;;;;;;;11.88;10.85;;;35.30;48.60;;;;;;6200875;28;20232;-62
2023/07/09 08:30:13;;;;;;;10.82;9.82;;;34.80;50.00;;;;;;6201157;28;20246;-62
2023/07/09 08:33:18;;;;;;;10.23;9.38;;;34.40;51.60;;;;;;6201122;28;20229;-63
2023/07/09 08:36:21;;;;;;;11.52;10.52;;;34.10;52.60;;;;;;6201277;28;20224;-61
2023/07/09 08:39:24;;;;;;;10.95;10.02;;;33.50;52.90;;;;;;6200865;28;20563;-61
2023/07/09 08:42:32;;;;;;;10.52;9.68;;;33.20;54.40;;;;;;6201281;28;20575;-61
2023/07/09 08:45:50;;;;;;;10.55;9.75;;;33.10;54.20;;;;;;6200808;28;20305;-61
2023/07/09 08:48:55;;;;;;;9.90;9.10;;;33.00;54.70;;;;;;6200984;28;20247;-61
2023/07/09 08:51:59;;;;;;;11.05;9.88;;;33.00;54.80;;;;;;6201078;28;20245;-61
2023/07/09 08:55:07;;;;;;;10.63;9.73;;;33.10;54.50;;;;;;6201395;28;20694;-61
2023/07/09 08:58:15;;;;;;;10.38;9.38;;;33.10;54.40;;;;;;6200943;28;20231;-61
2023/07/09 09:01:21;;;;;;;11.35;10.35;;;33.00;55.60;;;;;;6200678;28;20229;-62
2023/07/09 09:04:28;;;;;;;11.30;10.43;;;33.00;55.90;;;;;;6201317;28;20313;-62
2023/07/09 09:07:43;;;;;;;12.13;11.15;;;32.90;55.70;;;;;;6203956;28;20232;-62
2023/07/09 09:10:50;;;;;;;11.05;10.15;;;32.60;55.50;;;;;;6205420;28;20257;-63
2023/07/09 09:13:57;;;;;;;10.35;9.43;;;32.60;56.00;;;;;;6205093;28;20237;-61
2023/07/09 09:17:02;;;;;;;12.57;9.05;;;32.70;55.50;;;;;;6205048;28;20244;-61
2023/07/09 09:20:11;;;;;;;10.90;9.95;;;32.80;55.10;;;;;;6205096;28;20229;-61
2023/07/09 09:23:16;;;;;;;10.90;10.00;;;32.70;54.30;;;;;;6205166;28;20255;-62
2023/07/09 09:26:25;;;;;;;10.65;9.80;;;32.90;54.80;;;;;;6205482;28;20244;-62
2023/07/09 09:29:28;;;;;;;10.27;9.32;;;32.80;54.50;;;;;;6181031;28;20220;-62
2023/07/09 09:32:44;;;;;;;10.65;9.45;;;32.70;54.10;;;;;;6180869;28;20710;-62
2023/07/09 09:35:49;;;;;;;11.23;10.32;;;32.80;53.60;;;;;;6180150;28;20225;-62
2023/07/09 09:38:53;;;;;;;9.90;8.70;;;33.00;53.20;;;;;;6180627;28;20229;-62
2023/07/09 09:41:59;;;;;;;10.43;9.52;;;33.10;52.70;;;;;;6181010;28;20230;-62
2023/07/09 09:45:03;;;;;;;10.30;9.43;;;33.20;52.00;;;;;;6180825;28;20316;-62
2023/07/09 09:48:16;;;;;;;10.77;9.88;;;33.20;53.10;;;;;;6180465;28;20234;-62
2023/07/09 09:51:20;;;;;;;10.00;9.20;;;33.30;53.80;;;;;;6180618;28;20237;-63
2023/07/09 09:54:29;;;;;;;10.68;9.77;;;33.50;52.10;;;;;;6180225;28;20239;-62
2023/07/09 09:57:33;;;;;;;10.43;9.30;;;33.40;49.90;;;;;;6180522;28;20230;-62
2023/07/09 10:00:36;;;;;;;10.13;9.20;;;33.40;49.70;;;;;;6180273;28;20229;-62
2023/07/09 10:03:40;;;;;;;9.73;8.88;;;33.30;52.10;;;;;;6189190;28;20225;-62
2023/07/09 10:06:50;;;;;;;12.63;9.25;;;33.30;52.00;;;;;;6193592;28;20222;-62
2023/07/09 10:09:54;;;;;;;9.40;8.60;;;33.10;53.00;;;;;;6177438;28;20218;-63
2023/07/09 10:13:04;;;;;;;9.52;8.55;;;33.00;53.50;;;;;;6179550;28;20257;-63
2023/07/09 10:16:12;;;;;;;9.45;8.55;;;33.20;52.50;;;;;;6179612;28;20308;-62
2023/07/09 10:19:24;;;;;;;8.77;7.97;;;33.40;51.00;;;;;;6177004;28;20222;-63
2023/07/09 10:22:41;;;;;;;9.38;8.63;;;33.50;48.80;;;;;;6178803;28;20221;-63
2023/07/09 10:25:50;;;;;;;9.05;8.35;;;33.50;49.70;;;;;;6178919;28;20220;-62
2023/07/09 10:29:21;;;;;;;8.93;8.18;;;33.50;51.50;;;;;;6197313;28;20228;-63
2023/07/09 10:32:40;;;;;;;9.68;8.85;;;33.60;51.60;;;;;;6203025;28;20243;-63
2023/07/09 10:35:54;;;;;;;7.90;7.30;;;33.50;49.30;;;;;;6180671;28;20639;-62
2023/07/09 10:39:05;;;;;;;8.65;7.95;;;33.70;49.20;;;;;;6203546;28;20225;-61
2023/07/09 10:42:14;;;;;;;8.13;7.53;;;33.80;48.70;;;;;;6191945;28;20358;-62
2023/07/09 10:45:23;;;;;;;8.60;8.00;;;33.70;49.10;;;;;;6186795;28;20312;-61
2023/07/09 10:48:35;;;;;;;9.57;8.73;;;33.90;50.00;;;;;;6178521;28;20251;-61
2023/07/09 10:51:41;;;;;;;8.48;7.88;;;33.80;50.60;;;;;;6177703;28;20369;-62
2023/07/09 10:54:56;;;;;;;9.70;8.95;;;33.80;50.10;;;;;;6178577;28;20304;-62
2023/07/09 10:58:03;;;;;;;8.13;7.35;;;33.70;48.90;;;;;;6177291;28;20218;-62
2023/07/09 11:01:07;;;;;;;7.90;7.30;;;33.90;48.70;;;;;;6177975;28;20226;-62
2023/07/09 11:04:15;;;;;;;9.38;8.63;;;34.10;48.40;;;;;;6178145;28;20667;-62
2023/07/09 11:07:24;;;;;;;8.82;8.02;;;34.00;48.80;;;;;;6175701;28;20288;-62
2023/07/09 11:10:32;;;;;;;8.63;7.93;;;34.00;48.60;;;;;;6176620;28;20214;-63
2023/07/09 11:13:40;;;;;;;8.90;8.15;;;34.10;48.60;;;;;;6178294;28;20611;-62
2023/07/09 11:16:57;;;;;;;8.88;8.13;;;34.00;47.60;;;;;;6177619;28;20222;-62
2023/07/09 11:20:07;;;;;;;9.27;8.30;;;34.10;47.10;;;;;;6177648;28;20228;-62
2023/07/09 11:23:19;;;;;;;8.50;7.82;;;34.10;46.90;;;;;;6177571;28;20248;-62
2023/07/09 11:26:26;;;;;;;8.07;7.38;;;34.00;48.10;;;;;;6177779;28;20341;-62
2023/07/09 11:29:30;;;;;;;11.13;8.98;;;34.00;48.50;;;;;;6177234;28;20217;-63
2023/07/09 11:32:33;;;;;;;8.15;7.55;;;34.10;48.70;;;;;;6200812;28;20229;-62
2023/07/09 11:35:47;;;;;;;8.43;7.18;;;34.00;48.40;;;;;;6177532;28;20240;-61
2023/07/09 11:38:50;;;;;;;8.75;7.95;;;34.20;47.90;;;;;;6180274;28;20256;-61
2023/07/09 11:41:55;;;;;;;8.32;7.72;;;34.20;47.10;;;;;;6202039;28;20229;-62
2023/07/09 11:45:10;;;;;;;8.50;7.70;;;34.20;47.00;;;;;;6201587;28;20564;-61
2023/07/09 11:48:26;;;;;;;7.93;7.32;;;34.30;45.60;;;;;;6198353;28;20365;-61
2023/07/09 11:51:47;;;;;;;7.80;7.03;;;33.80;46.10;;;;;;6189125;28;20304;-61
2023/07/09 11:54:51;;;;;;;7.88;7.13;;;33.70;46.80;;;;;;6188514;28;20248;-62
2023/07/09 11:57:57;;;;;;;8.23;7.53;;;33.70;47.00;;;;;;6190291;28;20308;-61
2023/07/09 12:01:02;;;;;;;8.65;7.95;;;33.90;46.90;;;;;;6187977;28;20232;-60
2023/07/09 12:04:05;;;;;;;8.20;7.53;;;34.10;47.20;;;;;;6189111;28;20225;-60
2023/07/09 12:07:14;;;;;;;7.97;7.38;;;34.20;46.60;;;;;;6184895;28;20237;-61
2023/07/09 12:10:24;;;;;;;7.72;7.13;;;34.30;45.90;;;;;;6170391;28;20248;-61
2023/07/09 12:13:29;;;;;;;7.78;7.07;;;33.80;45.70;;;;;;6176669;28;20464;-61
2023/07/09 12:16:35;;;;;;;8.27;7.47;;;34.00;45.70;;;;;;6176367;28;20244;-61
2023/07/09 12:19:40;;;;;;;8.50;7.80;;;33.90;45.40;;;;;;6177124;28;20226;-61
2023/07/09 12:22:43;;;;;;;8.57;7.70;;;33.80;46.90;;;;;;6176729;28;20252;-62
2023/07/09 12:25:49;;;;;;;9.02;8.30;;;33.60;48.50;;;;;;6180398;28;20288;-61
2023/07/09 12:28:56;;;;;;;8.73;8.02;;;33.50;49.30;;;;;;6179596;28;20225;-62
2023/07/09 12:32:00;;;;;;;9.57;8.68;;;33.60;48.40;;;;;;6176677;28;20276;-61
2023/07/09 12:35:03;;;;;;;8.63;7.93;;;33.60;48.20;;;;;;6176636;28;20237;-61
2023/07/09 12:38:20;;;;;;;8.75;8.05;;;33.60;48.80;;;;;;6176208;28;20243;-62
2023/07/09 12:41:26;;;;;;;8.40;7.80;;;33.50;49.80;;;;;;6178218;28;20328;-61
2023/07/09 12:44:35;;;;;;;9.57;8.88;;;33.70;49.90;;;;;;6181103;28;20548;-62
2023/07/09 12:47:39;;;;;;;8.63;7.93;;;33.80;48.80;;;;;;6206255;28;20201;-61
2023/07/09 12:50:42;;;;;;;8.95;8.20;;;34.00;48.10;;;;;;6203858;28;20208;-63
2023/07/09 12:53:45;;;;;;;9.02;8.15;;;34.10;48.00;;;;;;6181424;28;20666;-61
2023/07/09 12:56:52;;;;;;;7.72;7.03;;;34.00;47.70;;;;;;6181017;28;20260;-61
2023/07/09 12:59:58;;;;;;;8.35;7.68;;;33.50;47.50;;;;;;6181101;28;20225;-62
2023/07/09 13:03:01;;;;;;;8.55;7.85;;;33.50;48.50;;;;;;6180891;28;20376;-61
2023/07/09 13:06:06;;;;;;;8.35;7.65;;;33.40;48.70;;;;;;6181172;28;20229;-61
2023/07/09 13:09:19;;;;;;;9.15;8.45;;;33.20;48.70;;;;;;6180885;28;20750;-62
2023/07/09 13:12:30;;;;;;;10.18;9.15;;;32.80;49.20;;;;;;6180503;28;20250;-61
2023/07/09 13:15:42;;;;;;;8.45;7.80;;;32.90;49.30;;;;;;6181057;28;20307;-61
2023/07/09 13:18:46;;;;;;;8.30;7.60;;;32.50;49.10;;;;;;6180464;28;20676;-62
2023/07/09 13:21:49;;;;;;;8.10;7.40;;;32.60;49.00;;;;;;6191224;28;20653;-61
2023/07/09 13:24:54;;;;;;;8.75;8.05;;;32.90;49.10;;;;;;6192932;28;20253;-61
2023/07/09 13:27:57;;;;;;;9.20;8.50;;;33.00;48.40;;;;;;6180731;28;20230;-61
2023/07/09 13:31:09;;;;;;;8.57;7.88;;;33.10;47.70;;;;;;6180664;28;20256;-62
2023/07/09 13:34:20;;;;;;;9.00;8.13;;;33.20;47.70;;;;;;6180373;28;20256;-63
2023/07/09 13:37:23;;;;;;;14.35;11.32;;;32.90;47.60;;;;;;6176800;28;20252;-62
2023/07/09 13:40:27;;;;;;;10.20;9.30;;;32.50;49.40;;;;;;6180448;28;20226;-63
2023/07/09 13:43:34;;;;;;;8.93;8.23;;;32.30;49.50;;;;;;6182928;28;20243;-62
2023/07/09 13:46:38;;;;;;;12.95;11.75;;;32.30;50.00;;;;;;6181100;28;20222;-62
2023/07/09 13:49:42;;;;;;;11.27;10.20;;;32.30;50.30;;;;;;6180183;28;20237;-63
2023/07/09 13:52:46;;;;;;;11.48;10.45;;;32.40;49.70;;;;;;6178844;28;20684;-62
2023/07/09 13:55:50;;;;;;;8.70;8.00;;;32.50;51.20;;;;;;6180168;28;20652;-62
2023/07/09 13:58:53;;;;;;;10.82;9.73;;;32.60;50.40;;;;;;6199651;28;20316;-62
2023/07/09 14:02:00;;;;;;;8.32;7.63;;;32.40;51.70;;;;;;6184345;28;20366;-60
2023/07/09 14:05:06;;;;;;;9.30;8.63;;;32.30;50.80;;;;;;6179773;28;20229;-60
2023/07/09 14:08:10;;;;;;;10.43;8.30;;;32.20;50.90;;;;;;6179933;28;20675;-60
2023/07/09 14:11:15;;;;;;;9.52;8.63;;;32.20;51.10;;;;;;6179723;28;20248;-60
2023/07/09 14:14:21;;;;;;;8.63;7.68;;;32.10;50.90;;;;;;6202273;28;20334;-61
2023/07/09 14:17:26;;;;;;;9.68;8.68;;;32.10;50.40;;;;;;6180358;28;20229;-61
2023/07/09 14:20:29;;;;;;;8.57;7.78;;;32.10;51.60;;;;;;6179703;28;20426;-60
2023/07/09 14:23:32;;;;;;;9.13;7.82;;;32.10;51.00;;;;;;6203413;28;20240;-60
2023/07/09 14:26:36;;;;;;;9.20;8.52;;;32.10;50.40;;;;;;6205216;28;20205;-63
2023/07/09 14:29:39;;;;;;;8.82;8.20;;;32.10;50.30;;;;;;6203828;28;20212;-63
2023/07/09 14:32:45;;;;;;;9.13;8.32;;;32.20;50.40;;;;;;6203258;28;20235;-62
2023/07/09 14:35:50;;;;;;;8.68;8.00;;;32.30;50.00;;;;;;6202701;28;20260;-62
2023/07/09 14:38:54;;;;;;;8.75;8.05;;;32.50;49.80;;;;;;6212955;28;20228;-63
2023/07/09 14:41:59;;;;;;;9.48;8.63;;;32.50;49.90;;;;;;6227836;28;20240;-61
2023/07/09 14:45:03;;;;;;;8.32;7.65;;;32.40;49.80;;;;;;6227496;28;20239;-61
2023/07/09 14:48:12;;;;;;;9.98;9.10;;;32.40;50.60;;;;;;6218646;28;20275;-61
2023/07/09 14:51:17;;;;;;;9.13;8.32;;;32.40;49.60;;;;;;6191695;28;20228;-61
2023/07/09 14:54:23;;;;;;;9.93;8.95;;;32.10;50.10;;;;;;6185297;28;20233;-61
2023/07/09 14:57:29;;;;;;;9.10;8.35;;;32.00;50.60;;;;;;6177497;28;20694;-61
2023/07/09 15:00:33;;;;;;;9.27;8.45;;;32.00;50.30;;;;;;6187027;28;20295;-62
2023/07/09 15:03:37;;;;;;;8.60;8.00;;;31.90;50.70;;;;;;6202661;28;20232;-63
2023/07/09 15:06:40;;;;;;;7.82;7.22;;;32.00;50.70;;;;;;6202054;28;20225;-63
2023/07/09 15:09:44;;;;;;;8.35;7.65;;;32.10;50.90;;;;;;6202403;28;20307;-64
2023/07/09 15:12:47;;;;;;;10.07;7.55;;;32.10;50.10;;;;;;6202172;28;20243;-63
2023/07/09 15:15:51;;;;;;;9.00;8.15;;;32.10;50.40;;;;;;6202252;28;20233;-62
2023/07/09 15:18:55;;;;;;;9.43;8.73;;;32.10;50.90;;;;;;6201408;28;20291;-61
2023/07/09 15:21:58;;;;;;;8.00;7.32;;;32.30;50.80;;;;;;6201574;28;20229;-62
2023/07/09 15:25:02;;;;;;;8.13;7.35;;;32.30;50.80;;;;;;6201284;28;20231;-61
2023/07/09 15:28:05;;;;;;;9.15;8.35;;;32.40;50.90;;;;;;6202019;28;20229;-61
2023/07/09 15:31:11;;;;;;;9.13;8.52;;;32.30;50.20;;;;;;6202105;28;20260;-61
2023/07/09 15:34:16;;;;;;;9.65;8.85;;;32.30;50.50;;;;;;6202003;28;20239;-62
2023/07/09 15:37:22;;;;;;;8.23;7.63;;;32.30;50.40;;;;;;6202113;28;20323;-63
2023/07/09 15:40:28;;;;;;;8.10;7.50;;;32.30;50.30;;;;;;6202166;28;20224;-61
2023/07/09 15:43:32;;;;;;;8.93;8.23;;;32.30;50.10;;;;;;6202098;28;20557;-61
2023/07/09 15:46:35;;;;;;;8.50;7.80;;;32.10;50.00;;;;;;6201470;28;20567;-61
2023/07/09 15:49:41;;;;;;;10.05;9.23;;;32.00;50.60;;;;;;6202028;28;20806;-60
2023/07/09 15:52:44;;;;;;;8.95;8.15;;;32.00;50.50;;;;;;6201665;28;20321;-62
2023/07/09 15:55:47;;;;;;;8.82;8.13;;;32.00;51.40;;;;;;6201217;28;20228;-61
2023/07/09 15:58:52;;;;;;;9.40;8.68;;;32.10;51.50;;;;;;6200508;28;20237;-61
2023/07/09 16:01:56;;;;;;;9.10;8.40;;;32.10;51.00;;;;;;6200532;28;20315;-61